sensor_id;sensor_type;location;lat;lon;timestamp;temperature;humidity
2757;DHT22;1386;50.862;6.494;2022-10-16T00:00:46;14.20;99.90
2757;DHT22;1386;50.862;6.494;2022-10-16T00:03:13;14.10;99.90
2757;DHT22;1386;50.862;6.494;2022-10-16T00:05:42;14.10;99.90
2757;DHT22;1386;50.862;6.494;2022-10-16T00:08:12;14.10;99.90
2757;DHT22;1386;50.862;6.494;2022-10-16T00:10:40;14.10;99.90
2757;DHT22;1386;50.862;6.494;2022-10-16T00:13:07;14.10;99.90
2757;DHT22;1386;50.862;6.494;2022-10-16T00:15:35;14.10;99.90
2757;DHT22;1386;50.862;6.494;2022-10-16T00:18:03;14.10;99.90
2757;DHT22;1386;50.862;6.494;2022-10-16T00:20:33;14.10;99.90
2757;DHT22;1386;50.862;6.494;2022-10-16T00:23:03;14.10;99.90
2757;DHT22;1386;50.862;6.494;2022-10-16T00:25:32;14.10;99.90
2757;DHT22;1386;50.862;6.494;2022-10-16T00:27:59;14.00;99.90
2757;DHT22;1386;50.862;6.494;2022-10-16T00:30:26;14.00;99.90
2757;DHT22;1386;50.862;6.494;2022-10-16T00:32:54;14.00;99.90
2757;DHT22;1386;50.862;6.494;2022-10-16T00:35:23;14.00;99.90
2757;DHT22;1386;50.862;6.494;2022-10-16T00:37:50;14.00;99.90
2757;DHT22;1386;50.862;6.494;2022-10-16T00:40:18;14.00;99.90
2757;DHT22;1386;50.862;6.494;2022-10-16T00:42:46;13.90;99.90
2757;DHT22;1386;50.862;6.494;2022-10-16T00:45:13;13.90;99.90
2757;DHT22;1386;50.862;6.494;2022-10-16T00:47:42;13.90;99.90
2757;DHT22;1386;50.862;6.494;2022-10-16T00:50:16;13.90;99.90
2757;DHT22;1386;50.862;6.494;2022-10-16T00:52:47;13.80;99.90
2757;DHT22;1386;50.862;6.494;2022-10-16T00:55:15;13.90;99.90
2757;DHT22;1386;50.862;6.494;2022-10-16T00:57:45;13.80;99.90
2757;DHT22;1386;50.862;6.494;2022-10-16T01:00:15;13.70;99.90
2757;DHT22;1386;50.862;6.494;2022-10-16T01:02:43;13.70;99.90
2757;DHT22;1386;50.862;6.494;2022-10-16T01:05:10;13.70;99.90
2757;DHT22;1386;50.862;6.494;2022-10-16T01:07:43;13.70;99.90
2757;DHT22;1386;50.862;6.494;2022-10-16T01:10:20;13.70;99.90
2757;DHT22;1386;50.862;6.494;2022-10-16T01:12:55;13.60;99.90
2757;DHT22;1386;50.862;6.494;2022-10-16T01:15:26;13.60;99.90
2757;DHT22;1386;50.862;6.494;2022-10-16T01:18:00;13.60;99.90
2757;DHT22;1386;50.862;6.494;2022-10-16T01:20:29;13.60;99.90
2757;DHT22;1386;50.862;6.494;2022-10-16T01:23:05;13.50;99.90
2757;DHT22;1386;50.862;6.494;2022-10-16T01:25:46;13.50;99.90
2757;DHT22;1386;50.862;6.494;2022-10-16T01:28:19;13.50;99.90
2757;DHT22;1386;50.862;6.494;2022-10-16T01:30:52;13.50;99.90
2757;DHT22;1386;50.862;6.494;2022-10-16T01:33:24;13.50;99.90
2757;DHT22;1386;50.862;6.494;2022-10-16T01:35:58;13.40;99.90
2757;DHT22;1386;50.862;6.494;2022-10-16T01:38:34;13.40;99.90
2757;DHT22;1386;50.862;6.494;2022-10-16T01:41:05;13.40;99.90
2757;DHT22;1386;50.862;6.494;2022-10-16T01:43:37;13.40;99.90
2757;DHT22;1386;50.862;6.494;2022-10-16T01:46:06;13.50;99.90
2757;DHT22;1386;50.862;6.494;2022-10-16T01:48:35;13.40;99.90
2757;DHT22;1386;50.862;6.494;2022-10-16T01:51:05;13.50;99.90
2757;DHT22;1386;50.862;6.494;2022-10-16T01:53:33;13.50;99.90
2757;DHT22;1386;50.862;6.494;2022-10-16T01:56:03;13.60;99.90
2757;DHT22;1386;50.862;6.494;2022-10-16T01:58:37;13.60;99.90
2757;DHT22;1386;50.862;6.494;2022-10-16T02:01:08;13.60;99.90
2757;DHT22;1386;50.862;6.494;2022-10-16T02:03:36;13.70;99.90
2757;DHT22;1386;50.862;6.494;2022-10-16T02:06:06;13.70;99.90
2757;DHT22;1386;50.862;6.494;2022-10-16T02:08:33;13.80;99.90
2757;DHT22;1386;50.862;6.494;2022-10-16T02:11:01;13.80;99.90
2757;DHT22;1386;50.862;6.494;2022-10-16T02:13:32;13.80;99.90
2757;DHT22;1386;50.862;6.494;2022-10-16T02:16:10;13.80;99.90
2757;DHT22;1386;50.862;6.494;2022-10-16T02:18:42;13.80;99.90
2757;DHT22;1386;50.862;6.494;2022-10-16T02:21:15;13.90;99.90
2757;DHT22;1386;50.862;6.494;2022-10-16T02:23:50;13.80;99.90
2757;DHT22;1386;50.862;6.494;2022-10-16T02:26:25;13.80;99.90
2757;DHT22;1386;50.862;6.494;2022-10-16T02:28:58;13.90;99.90
2757;DHT22;1386;50.862;6.494;2022-10-16T02:31:32;13.80;99.90
2757;DHT22;1386;50.862;6.494;2022-10-16T02:34:02;13.80;99.90
2757;DHT22;1386;50.862;6.494;2022-10-16T02:36:31;13.80;99.90
2757;DHT22;1386;50.862;6.494;2022-10-16T02:38:59;13.80;99.90
2757;DHT22;1386;50.862;6.494;2022-10-16T02:41:27;13.80;99.90
2757;DHT22;1386;50.862;6.494;2022-10-16T02:43:54;13.80;99.90
2757;DHT22;1386;50.862;6.494;2022-10-16T02:46:32;13.80;99.90
2757;DHT22;1386;50.862;6.494;2022-10-16T02:48:59;13.80;99.90
2757;DHT22;1386;50.862;6.494;2022-10-16T02:51:26;13.70;99.90
2757;DHT22;1386;50.862;6.494;2022-10-16T02:53:53;13.70;99.90
2757;DHT22;1386;50.862;6.494;2022-10-16T02:56:22;13.70;99.90
2757;DHT22;1386;50.862;6.494;2022-10-16T02:58:55;13.70;99.90
2757;DHT22;1386;50.862;6.494;2022-10-16T03:01:24;13.70;99.90
2757;DHT22;1386;50.862;6.494;2022-10-16T03:03:52;13.70;99.90
2757;DHT22;1386;50.862;6.494;2022-10-16T03:06:22;13.70;99.90
2757;DHT22;1386;50.862;6.494;2022-10-16T03:08:52;13.70;99.90
2757;DHT22;1386;50.862;6.494;2022-10-16T03:11:23;13.70;99.90
2757;DHT22;1386;50.862;6.494;2022-10-16T03:13:55;13.70;99.90
2757;DHT22;1386;50.862;6.494;2022-10-16T03:16:29;13.70;99.90
2757;DHT22;1386;50.862;6.494;2022-10-16T03:18:59;13.70;99.90
2757;DHT22;1386;50.862;6.494;2022-10-16T03:24:19;13.70;99.90
2757;DHT22;1386;50.862;6.494;2022-10-16T03:26:48;13.70;99.90
2757;DHT22;1386;50.862;6.494;2022-10-16T03:29:19;13.70;99.90
2757;DHT22;1386;50.862;6.494;2022-10-16T03:31:46;13.70;99.90
2757;DHT22;1386;50.862;6.494;2022-10-16T03:34:20;13.70;99.90
2757;DHT22;1386;50.862;6.494;2022-10-16T03:36:49;13.70;99.90
2757;DHT22;1386;50.862;6.494;2022-10-16T03:39:16;13.70;99.90
2757;DHT22;1386;50.862;6.494;2022-10-16T03:41:44;13.70;99.90
2757;DHT22;1386;50.862;6.494;2022-10-16T03:44:12;13.70;99.90
2757;DHT22;1386;50.862;6.494;2022-10-16T03:46:39;13.70;99.90
2757;DHT22;1386;50.862;6.494;2022-10-16T03:49:06;13.70;99.90
2757;DHT22;1386;50.862;6.494;2022-10-16T03:51:34;13.70;99.90
2757;DHT22;1386;50.862;6.494;2022-10-16T03:54:02;13.70;99.90
2757;DHT22;1386;50.862;6.494;2022-10-16T03:56:29;13.70;99.90
2757;DHT22;1386;50.862;6.494;2022-10-16T03:58:56;13.70;99.90
2757;DHT22;1386;50.862;6.494;2022-10-16T04:01:24;13.70;99.90
2757;DHT22;1386;50.862;6.494;2022-10-16T04:03:52;13.70;99.90
2757;DHT22;1386;50.862;6.494;2022-10-16T04:06:19;13.80;99.90
2757;DHT22;1386;50.862;6.494;2022-10-16T04:08:50;13.80;99.90
2757;DHT22;1386;50.862;6.494;2022-10-16T04:11:17;13.80;99.90
2757;DHT22;1386;50.862;6.494;2022-10-16T04:13:44;13.80;99.90
2757;DHT22;1386;50.862;6.494;2022-10-16T04:16:11;13.80;99.90
2757;DHT22;1386;50.862;6.494;2022-10-16T04:18:38;13.70;99.90
2757;DHT22;1386;50.862;6.494;2022-10-16T04:21:08;13.70;99.90
2757;DHT22;1386;50.862;6.494;2022-10-16T04:23:35;13.70;99.90
2757;DHT22;1386;50.862;6.494;2022-10-16T04:26:06;13.70;99.90
2757;DHT22;1386;50.862;6.494;2022-10-16T04:28:32;13.70;99.90
2757;DHT22;1386;50.862;6.494;2022-10-16T04:30:59;13.60;99.90
2757;DHT22;1386;50.862;6.494;2022-10-16T04:33:26;13.60;99.90
2757;DHT22;1386;50.862;6.494;2022-10-16T04:35:56;13.50;99.90
2757;DHT22;1386;50.862;6.494;2022-10-16T04:38:24;13.50;99.90
2757;DHT22;1386;50.862;6.494;2022-10-16T04:40:51;13.50;99.90
2757;DHT22;1386;50.862;6.494;2022-10-16T04:43:20;13.50;99.90
2757;DHT22;1386;50.862;6.494;2022-10-16T04:45:47;13.40;99.90
2757;DHT22;1386;50.862;6.494;2022-10-16T04:48:16;13.40;99.90
2757;DHT22;1386;50.862;6.494;2022-10-16T04:50:43;13.40;99.90
2757;DHT22;1386;50.862;6.494;2022-10-16T04:53:09;13.30;99.90
2757;DHT22;1386;50.862;6.494;2022-10-16T04:55:36;13.30;99.90
2757;DHT22;1386;50.862;6.494;2022-10-16T04:58:04;13.30;99.90
2757;DHT22;1386;50.862;6.494;2022-10-16T05:00:32;13.30;99.90
2757;DHT22;1386;50.862;6.494;2022-10-16T05:02:59;13.30;99.90
2757;DHT22;1386;50.862;6.494;2022-10-16T05:05:27;13.20;99.90
2757;DHT22;1386;50.862;6.494;2022-10-16T05:07:54;13.10;99.90
2757;DHT22;1386;50.862;6.494;2022-10-16T05:10:21;13.10;99.90
2757;DHT22;1386;50.862;6.494;2022-10-16T05:12:48;13.10;99.90
2757;DHT22;1386;50.862;6.494;2022-10-16T05:15:19;13.10;99.90
2757;DHT22;1386;50.862;6.494;2022-10-16T05:17:51;13.10;99.90
2757;DHT22;1386;50.862;6.494;2022-10-16T05:20:18;13.10;99.90
2757;DHT22;1386;50.862;6.494;2022-10-16T05:22:46;13.10;99.90
2757;DHT22;1386;50.862;6.494;2022-10-16T05:25:13;13.10;99.90
2757;DHT22;1386;50.862;6.494;2022-10-16T05:27:40;13.00;99.90
2757;DHT22;1386;50.862;6.494;2022-10-16T05:30:08;13.00;99.90
2757;DHT22;1386;50.862;6.494;2022-10-16T05:32:36;13.00;99.90
2757;DHT22;1386;50.862;6.494;2022-10-16T05:35:05;13.00;99.90
2757;DHT22;1386;50.862;6.494;2022-10-16T05:37:34;12.90;99.90
2757;DHT22;1386;50.862;6.494;2022-10-16T05:40:01;13.00;99.90
2757;DHT22;1386;50.862;6.494;2022-10-16T05:42:30;12.90;99.90
2757;DHT22;1386;50.862;6.494;2022-10-16T05:44:57;13.00;99.90
2757;DHT22;1386;50.862;6.494;2022-10-16T05:47:24;13.00;99.90
2757;DHT22;1386;50.862;6.494;2022-10-16T05:49:51;12.90;99.90
2757;DHT22;1386;50.862;6.494;2022-10-16T05:52:20;12.90;99.90
2757;DHT22;1386;50.862;6.494;2022-10-16T05:54:48;12.80;99.90
2757;DHT22;1386;50.862;6.494;2022-10-16T05:57:15;12.80;99.90
2757;DHT22;1386;50.862;6.494;2022-10-16T05:59:43;12.80;99.90
2757;DHT22;1386;50.862;6.494;2022-10-16T06:02:12;12.80;99.90
2757;DHT22;1386;50.862;6.494;2022-10-16T06:04:40;12.80;99.90
2757;DHT22;1386;50.862;6.494;2022-10-16T06:20:47;12.70;99.90
2757;DHT22;1386;50.862;6.494;2022-10-16T07:07:51;13.40;99.90
2757;DHT22;1386;50.862;6.494;2022-10-16T07:10:23;13.50;99.90
2757;DHT22;1386;50.862;6.494;2022-10-16T07:20:04;13.70;99.90
2757;DHT22;1386;50.862;6.494;2022-10-16T07:22:31;13.80;99.90
2757;DHT22;1386;50.862;6.494;2022-10-16T07:24:59;13.90;99.90
2757;DHT22;1386;50.862;6.494;2022-10-16T07:27:26;14.10;99.90
2757;DHT22;1386;50.862;6.494;2022-10-16T07:29:55;14.20;99.90
2757;DHT22;1386;50.862;6.494;2022-10-16T07:58:49;14.20;99.90
2757;DHT22;1386;50.862;6.494;2022-10-16T08:01:40;14.30;99.90
2757;DHT22;1386;50.862;6.494;2022-10-16T08:04:58;14.70;99.90
2757;DHT22;1386;50.862;6.494;2022-10-16T08:11:59;15.40;99.90
2757;DHT22;1386;50.862;6.494;2022-10-16T08:18:41;15.80;99.90
2757;DHT22;1386;50.862;6.494;2022-10-16T08:21:13;15.90;99.90
2757;DHT22;1386;50.862;6.494;2022-10-16T08:23:43;16.00;99.90
2757;DHT22;1386;50.862;6.494;2022-10-16T08:26:18;16.10;99.90
2757;DHT22;1386;50.862;6.494;2022-10-16T08:28:45;16.20;99.90
2757;DHT22;1386;50.862;6.494;2022-10-16T08:31:15;16.30;99.90
2757;DHT22;1386;50.862;6.494;2022-10-16T08:33:52;16.30;99.90
2757;DHT22;1386;50.862;6.494;2022-10-16T08:36:53;16.40;99.90
2757;DHT22;1386;50.862;6.494;2022-10-16T08:39:23;16.50;99.90
2757;DHT22;1386;50.862;6.494;2022-10-16T08:45:40;16.80;99.90
2757;DHT22;1386;50.862;6.494;2022-10-16T15:49:33;19.40;99.90
2757;DHT22;1386;50.862;6.494;2022-10-16T15:52:13;19.40;99.90
2757;DHT22;1386;50.862;6.494;2022-10-16T16:03:55;19.20;99.90
2757;DHT22;1386;50.862;6.494;2022-10-16T16:13:29;19.20;99.90
2757;DHT22;1386;50.862;6.494;2022-10-16T16:16:18;19.10;99.90
2757;DHT22;1386;50.862;6.494;2022-10-16T16:18:56;19.10;99.90
2757;DHT22;1386;50.862;6.494;2022-10-16T16:21:30;19.10;99.90
2757;DHT22;1386;50.862;6.494;2022-10-16T16:24:15;19.00;99.90
2757;DHT22;1386;50.862;6.494;2022-10-16T16:27:02;19.00;99.90
2757;DHT22;1386;50.862;6.494;2022-10-16T16:29:35;19.00;99.90
2757;DHT22;1386;50.862;6.494;2022-10-16T16:35:15;18.90;99.90
2757;DHT22;1386;50.862;6.494;2022-10-16T16:38:40;18.90;99.90
2757;DHT22;1386;50.862;6.494;2022-10-16T16:41:25;18.80;99.90
2757;DHT22;1386;50.862;6.494;2022-10-16T17:08:17;18.40;99.90
2757;DHT22;1386;50.862;6.494;2022-10-16T17:11:11;18.30;99.90
2757;DHT22;1386;50.862;6.494;2022-10-16T21:27:12;16.20;99.90
2757;DHT22;1386;50.862;6.494;2022-10-16T21:33:39;16.20;99.90
2757;DHT22;1386;50.862;6.494;2022-10-16T22:00:09;15.90;99.90
2757;DHT22;1386;50.862;6.494;2022-10-16T22:13:01;15.80;99.90
2757;DHT22;1386;50.862;6.494;2022-10-16T22:16:00;15.80;99.90
2757;DHT22;1386;50.862;6.494;2022-10-16T22:24:02;15.70;99.90
2757;DHT22;1386;50.862;6.494;2022-10-16T22:26:01;15.70;99.90
2757;DHT22;1386;50.862;6.494;2022-10-16T22:32:49;15.60;99.90
2757;DHT22;1386;50.862;6.494;2022-10-16T23:09:12;15.60;99.90
2757;DHT22;1386;50.862;6.494;2022-10-16T23:12:43;15.60;99.90
2757;DHT22;1386;50.862;6.494;2022-10-16T23:22:15;15.70;99.90
2757;DHT22;1386;50.862;6.494;2022-10-16T23:25:23;15.70;99.90
2757;DHT22;1386;50.862;6.494;2022-10-16T23:28:24;15.70;99.90
2757;DHT22;1386;50.862;6.494;2022-10-16T23:34:28;15.70;99.90
2757;DHT22;1386;50.862;6.494;2022-10-16T23:41:07;15.70;99.90
2757;DHT22;1386;50.862;6.494;2022-10-16T23:47:23;15.60;99.90
